sensor_id;sensor_type;location;lat;lon;timestamp;temperature;humidity
6690;DHT22;3382;51.576;8.076;2023-03-14T00:02:16;13.70;99.90
6690;DHT22;3382;51.576;8.076;2023-03-14T00:04:42;13.70;99.90
6690;DHT22;3382;51.576;8.076;2023-03-14T00:07:09;13.70;99.90
6690;DHT22;3382;51.576;8.076;2023-03-14T00:09:35;14.10;99.90
6690;DHT22;3382;51.576;8.076;2023-03-14T00:12:00;13.70;99.90
6690;DHT22;3382;51.576;8.076;2023-03-14T00:14:28;13.60;99.90
6690;DHT22;3382;51.576;8.076;2023-03-14T00:16:54;13.60;99.90
6690;DHT22;3382;51.576;8.076;2023-03-14T00:19:20;13.60;99.90
6690;DHT22;3382;51.576;8.076;2023-03-14T00:21:46;13.60;99.90
6690;DHT22;3382;51.576;8.076;2023-03-14T00:24:11;13.70;99.90
6690;DHT22;3382;51.576;8.076;2023-03-14T00:26:37;13.60;99.90
6690;DHT22;3382;51.576;8.076;2023-03-14T00:29:03;13.70;99.90
6690;DHT22;3382;51.576;8.076;2023-03-14T00:31:29;13.60;99.90
6690;DHT22;3382;51.576;8.076;2023-03-14T00:33:54;13.60;99.90
6690;DHT22;3382;51.576;8.076;2023-03-14T00:36:20;13.80;99.90
6690;DHT22;3382;51.576;8.076;2023-03-14T00:38:48;13.70;99.90
6690;DHT22;3382;51.576;8.076;2023-03-14T00:41:16;13.70;99.90
6690;DHT22;3382;51.576;8.076;2023-03-14T00:43:43;13.70;99.90
6690;DHT22;3382;51.576;8.076;2023-03-14T00:46:09;13.70;99.90
6690;DHT22;3382;51.576;8.076;2023-03-14T00:48:35;13.70;99.90
6690;DHT22;3382;51.576;8.076;2023-03-14T00:51:01;13.70;99.90
6690;DHT22;3382;51.576;8.076;2023-03-14T00:53:27;13.70;99.90
6690;DHT22;3382;51.576;8.076;2023-03-14T00:55:53;13.60;99.90
6690;DHT22;3382;51.576;8.076;2023-03-14T00:58:18;13.70;99.90
6690;DHT22;3382;51.576;8.076;2023-03-14T01:00:44;13.70;99.90
6690;DHT22;3382;51.576;8.076;2023-03-14T01:03:11;13.70;99.90
6690;DHT22;3382;51.576;8.076;2023-03-14T01:05:37;13.60;99.90
6690;DHT22;3382;51.576;8.076;2023-03-14T01:08:03;13.70;99.90
6690;DHT22;3382;51.576;8.076;2023-03-14T01:10:30;13.80;99.90
6690;DHT22;3382;51.576;8.076;2023-03-14T01:12:56;13.70;99.90
6690;DHT22;3382;51.576;8.076;2023-03-14T01:15:21;13.70;99.90
6690;DHT22;3382;51.576;8.076;2023-03-14T01:17:47;13.70;99.90
6690;DHT22;3382;51.576;8.076;2023-03-14T01:20:14;13.70;99.90
6690;DHT22;3382;51.576;8.076;2023-03-14T01:22:42;13.80;99.90
6690;DHT22;3382;51.576;8.076;2023-03-14T01:25:10;13.80;99.90
6690;DHT22;3382;51.576;8.076;2023-03-14T01:27:36;13.80;99.90
6690;DHT22;3382;51.576;8.076;2023-03-14T01:30:03;13.80;99.90
6690;DHT22;3382;51.576;8.076;2023-03-14T01:32:29;13.70;99.90
6690;DHT22;3382;51.576;8.076;2023-03-14T01:34:54;13.80;99.90
6690;DHT22;3382;51.576;8.076;2023-03-14T01:37:20;13.80;99.90
6690;DHT22;3382;51.576;8.076;2023-03-14T01:39:48;13.80;99.90
6690;DHT22;3382;51.576;8.076;2023-03-14T01:42:15;14.20;99.90
6690;DHT22;3382;51.576;8.076;2023-03-14T01:47:17;14.00;99.90
6690;DHT22;3382;51.576;8.076;2023-03-14T01:49:43;13.90;99.90
6690;DHT22;3382;51.576;8.076;2023-03-14T01:52:23;13.90;99.90
6690;DHT22;3382;51.576;8.076;2023-03-14T01:54:55;13.90;99.90
6690;DHT22;3382;51.576;8.076;2023-03-14T01:57:31;13.90;99.90
6690;DHT22;3382;51.576;8.076;2023-03-14T02:00:03;13.90;99.90
6690;DHT22;3382;51.576;8.076;2023-03-14T02:02:33;13.90;99.90
6690;DHT22;3382;51.576;8.076;2023-03-14T02:04:59;13.80;99.90
6690;DHT22;3382;51.576;8.076;2023-03-14T02:07:27;13.90;99.90
6690;DHT22;3382;51.576;8.076;2023-03-14T02:09:56;14.30;99.90
6690;DHT22;3382;51.576;8.076;2023-03-14T02:12:22;14.90;99.90
6690;DHT22;3382;51.576;8.076;2023-03-14T02:14:48;15.30;99.90
6690;DHT22;3382;51.576;8.076;2023-03-14T02:17:16;15.00;99.90
6690;DHT22;3382;51.576;8.076;2023-03-14T02:20:04;14.90;99.90
6690;DHT22;3382;51.576;8.076;2023-03-14T02:22:33;14.60;99.90
6690;DHT22;3382;51.576;8.076;2023-03-14T02:27:50;13.50;99.90
6690;DHT22;3382;51.576;8.076;2023-03-14T02:30:21;13.10;99.90
6690;DHT22;3382;51.576;8.076;2023-03-14T02:32:50;12.90;99.90
6690;DHT22;3382;51.576;8.076;2023-03-14T02:35:27;12.70;99.90
6690;DHT22;3382;51.576;8.076;2023-03-14T02:38:00;12.70;99.90
6690;DHT22;3382;51.576;8.076;2023-03-14T02:40:26;12.40;99.90
6690;DHT22;3382;51.576;8.076;2023-03-14T02:42:52;12.40;99.90
6690;DHT22;3382;51.576;8.076;2023-03-14T02:47:46;12.30;99.90
6690;DHT22;3382;51.576;8.076;2023-03-14T02:50:17;12.30;99.90
6690;DHT22;3382;51.576;8.076;2023-03-14T02:52:44;12.10;99.90
6690;DHT22;3382;51.576;8.076;2023-03-14T02:55:10;12.10;99.90
6690;DHT22;3382;51.576;8.076;2023-03-14T02:57:35;12.00;99.90
6690;DHT22;3382;51.576;8.076;2023-03-14T03:00:02;12.00;99.90
6690;DHT22;3382;51.576;8.076;2023-03-14T03:02:31;11.90;99.90
6690;DHT22;3382;51.576;8.076;2023-03-14T03:04:56;11.80;99.90
6690;DHT22;3382;51.576;8.076;2023-03-14T03:07:22;11.80;99.90
6690;DHT22;3382;51.576;8.076;2023-03-14T03:09:48;11.70;99.90
6690;DHT22;3382;51.576;8.076;2023-03-14T03:12:13;11.70;99.90
6690;DHT22;3382;51.576;8.076;2023-03-14T03:14:39;11.70;99.90
6690;DHT22;3382;51.576;8.076;2023-03-14T03:17:04;11.60;99.90
6690;DHT22;3382;51.576;8.076;2023-03-14T03:19:31;11.60;99.90
6690;DHT22;3382;51.576;8.076;2023-03-14T03:21:57;11.60;99.90
6690;DHT22;3382;51.576;8.076;2023-03-14T03:24:23;11.60;99.90
6690;DHT22;3382;51.576;8.076;2023-03-14T03:26:49;11.50;99.90
6690;DHT22;3382;51.576;8.076;2023-03-14T03:29:15;11.50;99.90
6690;DHT22;3382;51.576;8.076;2023-03-14T03:31:41;11.50;99.90
6690;DHT22;3382;51.576;8.076;2023-03-14T03:34:06;11.50;99.90
6690;DHT22;3382;51.576;8.076;2023-03-14T03:36:32;11.50;99.90
6690;DHT22;3382;51.576;8.076;2023-03-14T03:38:58;11.60;99.90
6690;DHT22;3382;51.576;8.076;2023-03-14T03:41:23;11.50;99.90
6690;DHT22;3382;51.576;8.076;2023-03-14T03:43:49;11.50;99.90
6690;DHT22;3382;51.576;8.076;2023-03-14T03:46:15;11.50;99.90
6690;DHT22;3382;51.576;8.076;2023-03-14T03:48:40;11.50;99.90
6690;DHT22;3382;51.576;8.076;2023-03-14T03:51:06;11.50;99.90
6690;DHT22;3382;51.576;8.076;2023-03-14T03:53:32;11.50;99.90
6690;DHT22;3382;51.576;8.076;2023-03-14T03:55:58;11.50;99.90
6690;DHT22;3382;51.576;8.076;2023-03-14T03:58:29;11.50;99.90
6690;DHT22;3382;51.576;8.076;2023-03-14T04:00:55;11.50;99.90
6690;DHT22;3382;51.576;8.076;2023-03-14T04:03:21;11.30;99.90
6690;DHT22;3382;51.576;8.076;2023-03-14T04:05:46;11.50;99.90
6690;DHT22;3382;51.576;8.076;2023-03-14T04:08:12;11.60;99.90
6690;DHT22;3382;51.576;8.076;2023-03-14T04:10:37;11.50;99.90
6690;DHT22;3382;51.576;8.076;2023-03-14T04:13:03;11.50;99.90
6690;DHT22;3382;51.576;8.076;2023-03-14T04:15:28;11.50;99.90
6690;DHT22;3382;51.576;8.076;2023-03-14T04:17:58;11.50;99.90
6690;DHT22;3382;51.576;8.076;2023-03-14T04:20:24;11.50;99.90
6690;DHT22;3382;51.576;8.076;2023-03-14T04:22:49;11.50;99.90
6690;DHT22;3382;51.576;8.076;2023-03-14T04:25:15;11.50;99.90
6690;DHT22;3382;51.576;8.076;2023-03-14T04:27:42;11.50;99.90
6690;DHT22;3382;51.576;8.076;2023-03-14T04:30:08;11.50;99.90
6690;DHT22;3382;51.576;8.076;2023-03-14T04:32:34;11.50;99.90
6690;DHT22;3382;51.576;8.076;2023-03-14T04:35:00;11.60;99.90
6690;DHT22;3382;51.576;8.076;2023-03-14T04:37:25;11.50;99.90
6690;DHT22;3382;51.576;8.076;2023-03-14T04:39:51;11.50;99.90
6690;DHT22;3382;51.576;8.076;2023-03-14T04:42:16;11.50;99.90
6690;DHT22;3382;51.576;8.076;2023-03-14T04:44:42;11.50;99.90
6690;DHT22;3382;51.576;8.076;2023-03-14T04:47:08;11.50;99.90
6690;DHT22;3382;51.576;8.076;2023-03-14T04:49:34;11.60;99.90
6690;DHT22;3382;51.576;8.076;2023-03-14T04:51:59;11.60;99.90
6690;DHT22;3382;51.576;8.076;2023-03-14T04:54:25;11.70;99.90
6690;DHT22;3382;51.576;8.076;2023-03-14T04:56:50;11.90;99.90
6690;DHT22;3382;51.576;8.076;2023-03-14T04:59:16;12.30;99.90
6690;DHT22;3382;51.576;8.076;2023-03-14T05:01:42;12.90;99.90
6690;DHT22;3382;51.576;8.076;2023-03-14T05:04:07;13.60;99.90
6690;DHT22;3382;51.576;8.076;2023-03-14T05:06:33;13.80;99.90
6690;DHT22;3382;51.576;8.076;2023-03-14T05:08:58;14.10;99.90
6690;DHT22;3382;51.576;8.076;2023-03-14T05:11:24;14.30;99.90
6690;DHT22;3382;51.576;8.076;2023-03-14T05:13:49;14.40;99.90
6690;DHT22;3382;51.576;8.076;2023-03-14T05:16:15;14.40;99.90
6690;DHT22;3382;51.576;8.076;2023-03-14T05:18:41;14.10;99.90
6690;DHT22;3382;51.576;8.076;2023-03-14T05:21:06;13.90;99.90
6690;DHT22;3382;51.576;8.076;2023-03-14T05:23:32;13.90;99.90
6690;DHT22;3382;51.576;8.076;2023-03-14T05:25:58;13.50;99.90
6690;DHT22;3382;51.576;8.076;2023-03-14T05:28:23;13.70;99.90
6690;DHT22;3382;51.576;8.076;2023-03-14T05:30:49;13.40;99.90
6690;DHT22;3382;51.576;8.076;2023-03-14T05:33:14;13.10;99.90
6690;DHT22;3382;51.576;8.076;2023-03-14T05:35:41;12.80;99.90
6690;DHT22;3382;51.576;8.076;2023-03-14T05:38:07;12.60;99.90
6690;DHT22;3382;51.576;8.076;2023-03-14T05:40:32;12.40;99.90
6690;DHT22;3382;51.576;8.076;2023-03-14T05:42:59;12.30;99.90
6690;DHT22;3382;51.576;8.076;2023-03-14T05:45:24;12.20;99.90
6690;DHT22;3382;51.576;8.076;2023-03-14T05:47:50;12.10;99.90
6690;DHT22;3382;51.576;8.076;2023-03-14T05:50:16;12.10;99.90
6690;DHT22;3382;51.576;8.076;2023-03-14T05:52:41;12.10;99.90
6690;DHT22;3382;51.576;8.076;2023-03-14T05:55:07;12.10;99.90
6690;DHT22;3382;51.576;8.076;2023-03-14T05:57:33;12.30;99.90
6690;DHT22;3382;51.576;8.076;2023-03-14T06:00:02;12.20;99.90
6690;DHT22;3382;51.576;8.076;2023-03-14T06:02:27;12.20;99.90
6690;DHT22;3382;51.576;8.076;2023-03-14T06:04:53;12.20;99.90
6690;DHT22;3382;51.576;8.076;2023-03-14T06:07:18;12.30;99.90
6690;DHT22;3382;51.576;8.076;2023-03-14T06:09:44;13.20;99.90
6690;DHT22;3382;51.576;8.076;2023-03-14T06:12:10;13.90;99.90
6690;DHT22;3382;51.576;8.076;2023-03-14T06:14:35;14.20;99.90
6690;DHT22;3382;51.576;8.076;2023-03-14T06:17:01;14.90;99.90
6690;DHT22;3382;51.576;8.076;2023-03-14T06:19:26;15.30;99.90
6690;DHT22;3382;51.576;8.076;2023-03-14T06:21:52;15.80;99.90
6690;DHT22;3382;51.576;8.076;2023-03-14T06:24:18;16.40;99.90
6690;DHT22;3382;51.576;8.076;2023-03-14T06:26:43;16.70;99.90
6690;DHT22;3382;51.576;8.076;2023-03-14T06:29:09;17.00;99.90
6690;DHT22;3382;51.576;8.076;2023-03-14T06:31:35;16.70;99.90
6690;DHT22;3382;51.576;8.076;2023-03-14T06:34:00;16.70;99.90
6690;DHT22;3382;51.576;8.076;2023-03-14T06:36:26;16.50;99.90
6690;DHT22;3382;51.576;8.076;2023-03-14T06:38:52;16.50;99.90
6690;DHT22;3382;51.576;8.076;2023-03-14T06:41:17;16.30;99.90
6690;DHT22;3382;51.576;8.076;2023-03-14T06:43:43;17.00;99.90
6690;DHT22;3382;51.576;8.076;2023-03-14T06:46:09;17.30;99.90
6690;DHT22;3382;51.576;8.076;2023-03-14T06:48:35;17.30;99.90
6690;DHT22;3382;51.576;8.076;2023-03-14T06:51:00;17.00;99.90
6690;DHT22;3382;51.576;8.076;2023-03-14T06:53:26;16.40;99.90
6690;DHT22;3382;51.576;8.076;2023-03-14T06:55:51;15.90;99.90
6690;DHT22;3382;51.576;8.076;2023-03-14T06:58:17;15.70;99.90
6690;DHT22;3382;51.576;8.076;2023-03-14T07:00:42;15.40;99.90
6690;DHT22;3382;51.576;8.076;2023-03-14T07:03:09;15.10;99.90
6690;DHT22;3382;51.576;8.076;2023-03-14T07:05:35;15.00;99.90
6690;DHT22;3382;51.576;8.076;2023-03-14T07:08:01;15.00;99.90
6690;DHT22;3382;51.576;8.076;2023-03-14T07:10:26;15.00;99.90
6690;DHT22;3382;51.576;8.076;2023-03-14T07:12:52;15.00;99.90
6690;DHT22;3382;51.576;8.076;2023-03-14T07:15:19;15.20;99.90
6690;DHT22;3382;51.576;8.076;2023-03-14T07:17:45;15.30;99.90
6690;DHT22;3382;51.576;8.076;2023-03-14T07:20:13;15.30;99.90
6690;DHT22;3382;51.576;8.076;2023-03-14T07:22:39;15.20;99.90
6690;DHT22;3382;51.576;8.076;2023-03-14T07:25:05;15.50;99.90
6690;DHT22;3382;51.576;8.076;2023-03-14T07:27:31;15.80;99.90
6690;DHT22;3382;51.576;8.076;2023-03-14T07:29:56;16.00;99.90
6690;DHT22;3382;51.576;8.076;2023-03-14T07:32:22;16.00;99.90
6690;DHT22;3382;51.576;8.076;2023-03-14T07:34:47;16.10;99.90
6690;DHT22;3382;51.576;8.076;2023-03-14T07:37:13;15.80;99.90
6690;DHT22;3382;51.576;8.076;2023-03-14T07:39:39;15.50;99.90
6690;DHT22;3382;51.576;8.076;2023-03-14T07:42:04;15.40;99.90
6690;DHT22;3382;51.576;8.076;2023-03-14T07:44:30;15.70;99.90
6690;DHT22;3382;51.576;8.076;2023-03-14T07:46:56;15.90;99.90
6690;DHT22;3382;51.576;8.076;2023-03-14T07:49:21;15.70;99.90
6690;DHT22;3382;51.576;8.076;2023-03-14T07:51:48;15.60;99.90
6690;DHT22;3382;51.576;8.076;2023-03-14T07:54:14;15.70;99.90
6690;DHT22;3382;51.576;8.076;2023-03-14T07:56:39;15.80;99.90
6690;DHT22;3382;51.576;8.076;2023-03-14T07:59:05;15.70;99.90
6690;DHT22;3382;51.576;8.076;2023-03-14T08:01:30;15.90;99.90
6690;DHT22;3382;51.576;8.076;2023-03-14T08:03:56;16.00;99.90
6690;DHT22;3382;51.576;8.076;2023-03-14T08:06:21;16.20;99.90
6690;DHT22;3382;51.576;8.076;2023-03-14T08:08:47;15.90;99.90
6690;DHT22;3382;51.576;8.076;2023-03-14T08:11:13;15.90;99.90
6690;DHT22;3382;51.576;8.076;2023-03-14T08:13:38;16.00;99.90
6690;DHT22;3382;51.576;8.076;2023-03-14T08:16:05;15.80;99.90
6690;DHT22;3382;51.576;8.076;2023-03-14T08:18:30;15.50;99.90
6690;DHT22;3382;51.576;8.076;2023-03-14T08:20:56;15.90;99.90
6690;DHT22;3382;51.576;8.076;2023-03-14T08:23:22;15.80;99.90
6690;DHT22;3382;51.576;8.076;2023-03-14T08:25:51;15.70;99.90
6690;DHT22;3382;51.576;8.076;2023-03-14T08:28:17;15.90;99.90
6690;DHT22;3382;51.576;8.076;2023-03-14T08:30:43;16.10;99.90
6690;DHT22;3382;51.576;8.076;2023-03-14T08:33:09;16.20;99.90
6690;DHT22;3382;51.576;8.076;2023-03-14T08:35:36;16.30;99.90
6690;DHT22;3382;51.576;8.076;2023-03-14T08:38:02;16.50;99.90
6690;DHT22;3382;51.576;8.076;2023-03-14T08:40:28;16.80;99.90
6690;DHT22;3382;51.576;8.076;2023-03-14T08:42:53;17.10;99.90
6690;DHT22;3382;51.576;8.076;2023-03-14T08:45:19;17.30;99.90
6690;DHT22;3382;51.576;8.076;2023-03-14T08:47:45;17.00;99.90
6690;DHT22;3382;51.576;8.076;2023-03-14T08:50:11;16.90;99.90
6690;DHT22;3382;51.576;8.076;2023-03-14T08:52:37;17.10;99.90
6690;DHT22;3382;51.576;8.076;2023-03-14T08:55:06;17.30;99.90
6690;DHT22;3382;51.576;8.076;2023-03-14T08:57:32;17.20;99.90
6690;DHT22;3382;51.576;8.076;2023-03-14T08:59:58;17.20;99.90
6690;DHT22;3382;51.576;8.076;2023-03-14T09:02:24;17.40;99.90
6690;DHT22;3382;51.576;8.076;2023-03-14T09:04:51;17.50;99.90
6690;DHT22;3382;51.576;8.076;2023-03-14T09:07:17;17.60;99.90
6690;DHT22;3382;51.576;8.076;2023-03-14T09:09:43;17.50;99.90
6690;DHT22;3382;51.576;8.076;2023-03-14T09:12:09;17.70;99.90
6690;DHT22;3382;51.576;8.076;2023-03-14T09:14:35;17.50;99.90
6690;DHT22;3382;51.576;8.076;2023-03-14T09:17:01;17.60;99.90
6690;DHT22;3382;51.576;8.076;2023-03-14T09:19:27;17.60;99.90
6690;DHT22;3382;51.576;8.076;2023-03-14T09:21:54;17.70;99.90
6690;DHT22;3382;51.576;8.076;2023-03-14T09:24:20;18.10;99.90
6690;DHT22;3382;51.576;8.076;2023-03-14T09:26:46;18.40;99.90
6690;DHT22;3382;51.576;8.076;2023-03-14T09:29:14;18.80;99.90
6690;DHT22;3382;51.576;8.076;2023-03-14T09:31:40;19.10;99.90
6690;DHT22;3382;51.576;8.076;2023-03-14T09:34:06;19.10;99.90
6690;DHT22;3382;51.576;8.076;2023-03-14T09:36:31;19.10;99.90
6690;DHT22;3382;51.576;8.076;2023-03-14T09:38:57;19.00;99.90
6690;DHT22;3382;51.576;8.076;2023-03-14T09:41:33;19.30;99.90
6690;DHT22;3382;51.576;8.076;2023-03-14T09:44:21;19.50;99.90
6690;DHT22;3382;51.576;8.076;2023-03-14T09:46:50;19.60;99.90
6690;DHT22;3382;51.576;8.076;2023-03-14T09:49:30;19.30;99.90
6690;DHT22;3382;51.576;8.076;2023-03-14T09:51:59;19.20;99.90
6690;DHT22;3382;51.576;8.076;2023-03-14T09:54:38;19.20;99.90
6690;DHT22;3382;51.576;8.076;2023-03-14T09:57:16;19.10;99.90
6690;DHT22;3382;51.576;8.076;2023-03-14T09:59:44;19.00;99.90
6690;DHT22;3382;51.576;8.076;2023-03-14T10:02:17;18.70;99.90
6690;DHT22;3382;51.576;8.076;2023-03-14T10:04:46;18.40;99.90
6690;DHT22;3382;51.576;8.076;2023-03-14T10:07:18;18.00;99.90
6690;DHT22;3382;51.576;8.076;2023-03-14T10:09:48;17.50;99.90
6690;DHT22;3382;51.576;8.076;2023-03-14T10:12:13;17.10;99.90
6690;DHT22;3382;51.576;8.076;2023-03-14T10:14:49;17.10;99.90
6690;DHT22;3382;51.576;8.076;2023-03-14T10:17:17;16.90;99.90
6690;DHT22;3382;51.576;8.076;2023-03-14T10:20:00;17.00;99.90
6690;DHT22;3382;51.576;8.076;2023-03-14T10:22:30;17.70;99.90
6690;DHT22;3382;51.576;8.076;2023-03-14T10:25:04;18.10;99.90
6690;DHT22;3382;51.576;8.076;2023-03-14T10:27:33;18.30;99.90
6690;DHT22;3382;51.576;8.076;2023-03-14T10:30:05;18.70;99.90
6690;DHT22;3382;51.576;8.076;2023-03-14T10:32:37;19.00;99.90
6690;DHT22;3382;51.576;8.076;2023-03-14T10:35:11;19.20;99.90
6690;DHT22;3382;51.576;8.076;2023-03-14T10:37:58;19.20;99.90
6690;DHT22;3382;51.576;8.076;2023-03-14T10:40:30;19.20;99.90
6690;DHT22;3382;51.576;8.076;2023-03-14T10:42:58;18.90;99.90
6690;DHT22;3382;51.576;8.076;2023-03-14T10:45:47;19.00;99.90
6690;DHT22;3382;51.576;8.076;2023-03-14T10:48:22;19.30;99.90
6690;DHT22;3382;51.576;8.076;2023-03-14T10:51:09;19.20;99.90
6690;DHT22;3382;51.576;8.076;2023-03-14T10:54:15;18.50;99.90
6690;DHT22;3382;51.576;8.076;2023-03-14T10:56:44;18.30;99.90
6690;DHT22;3382;51.576;8.076;2023-03-14T10:59:15;18.20;99.90
6690;DHT22;3382;51.576;8.076;2023-03-14T11:07:16;17.50;99.90
6690;DHT22;3382;51.576;8.076;2023-03-14T11:25:57;16.20;99.90
6690;DHT22;3382;51.576;8.076;2023-03-14T11:28:28;15.70;99.90
6690;DHT22;3382;51.576;8.076;2023-03-14T11:34:01;15.60;99.90
6690;DHT22;3382;51.576;8.076;2023-03-14T11:36:37;15.00;99.90
6690;DHT22;3382;51.576;8.076;2023-03-14T11:39:08;14.80;99.90
6690;DHT22;3382;51.576;8.076;2023-03-14T11:41:39;14.40;99.90
6690;DHT22;3382;51.576;8.076;2023-03-14T11:44:27;14.10;99.90
6690;DHT22;3382;51.576;8.076;2023-03-14T11:47:02;13.70;99.90
6690;DHT22;3382;51.576;8.076;2023-03-14T11:52:32;13.30;99.90
6690;DHT22;3382;51.576;8.076;2023-03-14T11:55:05;13.40;99.90
6690;DHT22;3382;51.576;8.076;2023-03-14T11:57:32;13.10;99.90
6690;DHT22;3382;51.576;8.076;2023-03-14T12:08:36;12.70;99.90
6690;DHT22;3382;51.576;8.076;2023-03-14T12:11:20;12.40;99.90
6690;DHT22;3382;51.576;8.076;2023-03-14T12:13:49;12.60;99.90
6690;DHT22;3382;51.576;8.076;2023-03-14T12:18:50;12.20;99.90
6690;DHT22;3382;51.576;8.076;2023-03-14T12:21:17;12.20;99.90
6690;DHT22;3382;51.576;8.076;2023-03-14T12:23:55;11.80;99.90
6690;DHT22;3382;51.576;8.076;2023-03-14T12:26:27;11.50;99.90
6690;DHT22;3382;51.576;8.076;2023-03-14T12:42:11;10.30;99.90
6690;DHT22;3382;51.576;8.076;2023-03-14T12:44:44;10.20;99.90
6690;DHT22;3382;51.576;8.076;2023-03-14T12:49:54;10.40;99.90
6690;DHT22;3382;51.576;8.076;2023-03-14T12:55:44;10.10;99.90
6690;DHT22;3382;51.576;8.076;2023-03-14T13:01:27;10.20;99.90
6690;DHT22;3382;51.576;8.076;2023-03-14T13:04:01;10.20;99.90
6690;DHT22;3382;51.576;8.076;2023-03-14T13:06:53;10.20;99.90
6690;DHT22;3382;51.576;8.076;2023-03-14T13:09:50;10.20;99.90
6690;DHT22;3382;51.576;8.076;2023-03-14T13:12:18;10.20;99.90
6690;DHT22;3382;51.576;8.076;2023-03-14T13:14:48;10.10;99.90
6690;DHT22;3382;51.576;8.076;2023-03-14T13:17:18;9.90;99.90
6690;DHT22;3382;51.576;8.076;2023-03-14T13:19:51;9.90;99.90
6690;DHT22;3382;51.576;8.076;2023-03-14T13:22:24;9.90;99.90
6690;DHT22;3382;51.576;8.076;2023-03-14T13:25:09;9.70;99.90
6690;DHT22;3382;51.576;8.076;2023-03-14T13:27:35;9.70;99.90
6690;DHT22;3382;51.576;8.076;2023-03-14T13:30:22;9.80;99.90
6690;DHT22;3382;51.576;8.076;2023-03-14T13:32:50;10.20;99.90
6690;DHT22;3382;51.576;8.076;2023-03-14T13:35:26;10.10;99.90
6690;DHT22;3382;51.576;8.076;2023-03-14T13:38:01;9.90;99.90
6690;DHT22;3382;51.576;8.076;2023-03-14T13:40:31;9.80;99.90
6690;DHT22;3382;51.576;8.076;2023-03-14T13:43:20;9.80;99.90
6690;DHT22;3382;51.576;8.076;2023-03-14T13:48:18;10.00;99.90
6690;DHT22;3382;51.576;8.076;2023-03-14T13:51:11;10.30;99.90
6690;DHT22;3382;51.576;8.076;2023-03-14T13:53:48;10.10;99.90
6690;DHT22;3382;51.576;8.076;2023-03-14T13:56:16;10.10;99.90
6690;DHT22;3382;51.576;8.076;2023-03-14T13:58:42;10.00;99.90
6690;DHT22;3382;51.576;8.076;2023-03-14T14:01:15;9.90;99.90
6690;DHT22;3382;51.576;8.076;2023-03-14T14:03:44;10.30;99.90
6690;DHT22;3382;51.576;8.076;2023-03-14T14:06:23;10.10;99.90
6690;DHT22;3382;51.576;8.076;2023-03-14T14:08:49;10.20;99.90
6690;DHT22;3382;51.576;8.076;2023-03-14T14:14:01;9.80;99.90
6690;DHT22;3382;51.576;8.076;2023-03-14T14:16:28;9.50;99.90
6690;DHT22;3382;51.576;8.076;2023-03-14T14:18:56;9.30;99.90
6690;DHT22;3382;51.576;8.076;2023-03-14T14:21:22;9.10;99.90
6690;DHT22;3382;51.576;8.076;2023-03-14T14:23:48;9.00;99.90
6690;DHT22;3382;51.576;8.076;2023-03-14T14:26:16;9.00;99.90
6690;DHT22;3382;51.576;8.076;2023-03-14T14:28:43;9.00;99.90
6690;DHT22;3382;51.576;8.076;2023-03-14T14:36:27;9.10;99.90
6690;DHT22;3382;51.576;8.076;2023-03-14T14:38:57;9.10;99.90
6690;DHT22;3382;51.576;8.076;2023-03-14T14:41:30;9.60;99.90
6690;DHT22;3382;51.576;8.076;2023-03-14T14:43:57;9.40;99.90
6690;DHT22;3382;51.576;8.076;2023-03-14T14:46:25;9.50;99.90
6690;DHT22;3382;51.576;8.076;2023-03-14T14:48:56;9.60;99.90
6690;DHT22;3382;51.576;8.076;2023-03-14T14:51:30;10.10;99.90
6690;DHT22;3382;51.576;8.076;2023-03-14T14:54:12;11.20;99.90
6690;DHT22;3382;51.576;8.076;2023-03-14T14:56:39;12.50;99.90
6690;DHT22;3382;51.576;8.076;2023-03-14T14:59:07;13.20;99.90
6690;DHT22;3382;51.576;8.076;2023-03-14T15:01:43;13.80;99.90
6690;DHT22;3382;51.576;8.076;2023-03-14T15:04:11;13.90;99.90
6690;DHT22;3382;51.576;8.076;2023-03-14T15:06:39;13.00;99.90
6690;DHT22;3382;51.576;8.076;2023-03-14T15:09:10;12.70;99.90
6690;DHT22;3382;51.576;8.076;2023-03-14T15:11:38;11.80;99.90
6690;DHT22;3382;51.576;8.076;2023-03-14T15:14:04;11.60;99.90
6690;DHT22;3382;51.576;8.076;2023-03-14T15:16:32;11.90;99.90
6690;DHT22;3382;51.576;8.076;2023-03-14T15:19:00;12.40;99.90
6690;DHT22;3382;51.576;8.076;2023-03-14T15:21:28;13.40;99.90
6690;DHT22;3382;51.576;8.076;2023-03-14T15:23:54;14.60;99.90
6690;DHT22;3382;51.576;8.076;2023-03-14T15:26:25;15.40;99.90
6690;DHT22;3382;51.576;8.076;2023-03-14T15:28:52;16.30;99.90
6690;DHT22;3382;51.576;8.076;2023-03-14T15:31:18;16.20;99.90
6690;DHT22;3382;51.576;8.076;2023-03-14T15:33:45;16.70;99.90
6690;DHT22;3382;51.576;8.076;2023-03-14T15:36:37;17.30;99.90
6690;DHT22;3382;51.576;8.076;2023-03-14T15:39:04;17.80;99.90
6690;DHT22;3382;51.576;8.076;2023-03-14T15:41:31;18.00;99.90
6690;DHT22;3382;51.576;8.076;2023-03-14T15:43:57;18.20;99.90
6690;DHT22;3382;51.576;8.076;2023-03-14T15:46:23;18.30;99.90
6690;DHT22;3382;51.576;8.076;2023-03-14T15:48:49;18.10;99.90
6690;DHT22;3382;51.576;8.076;2023-03-14T15:51:16;17.70;99.90
6690;DHT22;3382;51.576;8.076;2023-03-14T15:53:41;16.50;99.90
6690;DHT22;3382;51.576;8.076;2023-03-14T15:56:15;15.20;99.90
6690;DHT22;3382;51.576;8.076;2023-03-14T15:58:41;14.20;99.90
6690;DHT22;3382;51.576;8.076;2023-03-14T16:01:12;13.70;99.90
6690;DHT22;3382;51.576;8.076;2023-03-14T16:03:38;13.30;99.90
6690;DHT22;3382;51.576;8.076;2023-03-14T16:06:05;12.90;99.90
6690;DHT22;3382;51.576;8.076;2023-03-14T16:08:30;12.60;99.90
6690;DHT22;3382;51.576;8.076;2023-03-14T16:11:00;12.90;99.90
6690;DHT22;3382;51.576;8.076;2023-03-14T16:13:25;14.00;99.90
6690;DHT22;3382;51.576;8.076;2023-03-14T16:16:00;14.30;99.90
6690;DHT22;3382;51.576;8.076;2023-03-14T16:18:31;14.30;99.90
6690;DHT22;3382;51.576;8.076;2023-03-14T16:20:59;14.00;99.90
6690;DHT22;3382;51.576;8.076;2023-03-14T16:23:27;13.20;99.90
6690;DHT22;3382;51.576;8.076;2023-03-14T16:25:53;12.70;99.90
6690;DHT22;3382;51.576;8.076;2023-03-14T16:28:19;13.00;99.90
6690;DHT22;3382;51.576;8.076;2023-03-14T16:30:45;13.30;99.90
6690;DHT22;3382;51.576;8.076;2023-03-14T16:33:12;12.80;99.90
6690;DHT22;3382;51.576;8.076;2023-03-14T16:35:41;12.30;99.90
6690;DHT22;3382;51.576;8.076;2023-03-14T16:38:17;12.10;99.90
6690;DHT22;3382;51.576;8.076;2023-03-14T16:40:43;11.60;99.90
6690;DHT22;3382;51.576;8.076;2023-03-14T16:43:08;11.30;99.90
6690;DHT22;3382;51.576;8.076;2023-03-14T16:45:36;11.10;99.90
6690;DHT22;3382;51.576;8.076;2023-03-14T16:48:02;10.90;99.90
6690;DHT22;3382;51.576;8.076;2023-03-14T16:50:28;10.80;99.90
6690;DHT22;3382;51.576;8.076;2023-03-14T16:52:54;10.80;99.90
6690;DHT22;3382;51.576;8.076;2023-03-14T16:55:20;10.80;99.90
6690;DHT22;3382;51.576;8.076;2023-03-14T16:57:45;10.50;99.90
6690;DHT22;3382;51.576;8.076;2023-03-14T17:00:11;10.40;99.90
6690;DHT22;3382;51.576;8.076;2023-03-14T17:02:37;10.40;99.90
6690;DHT22;3382;51.576;8.076;2023-03-14T17:05:03;10.30;99.90
6690;DHT22;3382;51.576;8.076;2023-03-14T17:07:29;10.20;99.90
6690;DHT22;3382;51.576;8.076;2023-03-14T17:09:55;10.70;99.90
6690;DHT22;3382;51.576;8.076;2023-03-14T17:12:20;11.70;99.90
6690;DHT22;3382;51.576;8.076;2023-03-14T17:14:46;12.60;99.90
6690;DHT22;3382;51.576;8.076;2023-03-14T17:17:11;12.60;99.90
6690;DHT22;3382;51.576;8.076;2023-03-14T17:19:37;11.90;99.90
6690;DHT22;3382;51.576;8.076;2023-03-14T17:22:02;11.20;99.90
6690;DHT22;3382;51.576;8.076;2023-03-14T17:24:28;10.70;99.90
6690;DHT22;3382;51.576;8.076;2023-03-14T17:26:54;11.20;99.90
6690;DHT22;3382;51.576;8.076;2023-03-14T17:29:19;11.70;99.90